sensor_id;sensor_type;location;lat;lon;timestamp;temperature;humidity
2851;DHT22;1433;49.976;8.342;2024-03-02T00:01:14;3.90;99.90
2851;DHT22;1433;49.976;8.342;2024-03-02T00:03:42;3.80;99.90
2851;DHT22;1433;49.976;8.342;2024-03-02T00:06:09;3.80;99.90
2851;DHT22;1433;49.976;8.342;2024-03-02T00:08:35;3.70;99.90
2851;DHT22;1433;49.976;8.342;2024-03-02T00:11:01;3.70;99.90
2851;DHT22;1433;49.976;8.342;2024-03-02T00:13:29;3.60;99.90
2851;DHT22;1433;49.976;8.342;2024-03-02T00:15:57;3.60;99.90
2851;DHT22;1433;49.976;8.342;2024-03-02T00:18:33;3.60;99.90
2851;DHT22;1433;49.976;8.342;2024-03-02T00:21:01;3.50;99.90
2851;DHT22;1433;49.976;8.342;2024-03-02T00:23:30;3.50;99.90
2851;DHT22;1433;49.976;8.342;2024-03-02T00:25:57;3.50;99.90
2851;DHT22;1433;49.976;8.342;2024-03-02T00:28:29;3.50;99.90
2851;DHT22;1433;49.976;8.342;2024-03-02T00:33:44;3.50;99.90
2851;DHT22;1433;49.976;8.342;2024-03-02T00:36:14;3.50;99.90
2851;DHT22;1433;49.976;8.342;2024-03-02T00:38:52;3.50;99.90
2851;DHT22;1433;49.976;8.342;2024-03-02T00:41:25;3.40;99.90
2851;DHT22;1433;49.976;8.342;2024-03-02T00:44:03;3.30;99.90
2851;DHT22;1433;49.976;8.342;2024-03-02T00:46:41;3.50;99.90
2851;DHT22;1433;49.976;8.342;2024-03-02T00:49:21;3.30;99.90
2851;DHT22;1433;49.976;8.342;2024-03-02T00:51:50;3.20;99.90
2851;DHT22;1433;49.976;8.342;2024-03-02T00:54:23;3.20;99.90
2851;DHT22;1433;49.976;8.342;2024-03-02T00:56:51;3.20;99.90
2851;DHT22;1433;49.976;8.342;2024-03-02T00:59:20;3.20;99.90
2851;DHT22;1433;49.976;8.342;2024-03-02T01:01:48;3.20;99.90
2851;DHT22;1433;49.976;8.342;2024-03-02T01:04:15;3.10;99.90
2851;DHT22;1433;49.976;8.342;2024-03-02T01:06:42;2.90;99.90
2851;DHT22;1433;49.976;8.342;2024-03-02T01:09:09;3.30;99.90
2851;DHT22;1433;49.976;8.342;2024-03-02T01:11:35;3.10;99.90
2851;DHT22;1433;49.976;8.342;2024-03-02T01:14:00;3.30;99.90
2851;DHT22;1433;49.976;8.342;2024-03-02T01:16:27;3.20;99.90
2851;DHT22;1433;49.976;8.342;2024-03-02T01:18:53;3.40;99.90
2851;DHT22;1433;49.976;8.342;2024-03-02T01:21:19;3.60;99.90
2851;DHT22;1433;49.976;8.342;2024-03-02T01:23:45;3.60;99.90
2851;DHT22;1433;49.976;8.342;2024-03-02T01:26:10;3.40;99.90
2851;DHT22;1433;49.976;8.342;2024-03-02T01:28:36;3.40;99.90
2851;DHT22;1433;49.976;8.342;2024-03-02T01:31:02;3.30;99.90
2851;DHT22;1433;49.976;8.342;2024-03-02T01:33:28;3.30;99.90
2851;DHT22;1433;49.976;8.342;2024-03-02T01:35:54;3.20;99.90
2851;DHT22;1433;49.976;8.342;2024-03-02T01:38:20;3.20;99.90
2851;DHT22;1433;49.976;8.342;2024-03-02T01:40:46;3.10;99.90
2851;DHT22;1433;49.976;8.342;2024-03-02T01:43:12;3.10;99.90
2851;DHT22;1433;49.976;8.342;2024-03-02T01:45:38;3.10;99.90
2851;DHT22;1433;49.976;8.342;2024-03-02T01:48:07;3.10;99.90
2851;DHT22;1433;49.976;8.342;2024-03-02T01:50:34;3.10;99.90
2851;DHT22;1433;49.976;8.342;2024-03-02T01:53:00;3.10;99.90
2851;DHT22;1433;49.976;8.342;2024-03-02T01:55:28;3.10;99.90
2851;DHT22;1433;49.976;8.342;2024-03-02T01:57:56;3.00;99.90
2851;DHT22;1433;49.976;8.342;2024-03-02T02:00:22;3.00;99.90
2851;DHT22;1433;49.976;8.342;2024-03-02T02:03:11;3.00;99.90
2851;DHT22;1433;49.976;8.342;2024-03-02T02:05:36;3.00;99.90
2851;DHT22;1433;49.976;8.342;2024-03-02T02:08:02;3.00;99.90
2851;DHT22;1433;49.976;8.342;2024-03-02T02:10:28;3.00;99.90
2851;DHT22;1433;49.976;8.342;2024-03-02T02:12:54;3.00;99.90
2851;DHT22;1433;49.976;8.342;2024-03-02T02:15:27;3.00;99.90
2851;DHT22;1433;49.976;8.342;2024-03-02T02:17:58;3.00;99.90
2851;DHT22;1433;49.976;8.342;2024-03-02T02:20:24;2.90;99.90
2851;DHT22;1433;49.976;8.342;2024-03-02T02:23:03;2.90;99.90
2851;DHT22;1433;49.976;8.342;2024-03-02T02:25:31;2.90;99.90
2851;DHT22;1433;49.976;8.342;2024-03-02T02:27:57;2.90;99.90
2851;DHT22;1433;49.976;8.342;2024-03-02T02:30:26;2.90;99.90
2851;DHT22;1433;49.976;8.342;2024-03-02T02:32:54;2.90;99.90
2851;DHT22;1433;49.976;8.342;2024-03-02T02:35:19;2.90;99.90
2851;DHT22;1433;49.976;8.342;2024-03-02T02:37:47;2.90;99.90
2851;DHT22;1433;49.976;8.342;2024-03-02T02:40:13;2.90;99.90
2851;DHT22;1433;49.976;8.342;2024-03-02T02:42:39;2.90;99.90
2851;DHT22;1433;49.976;8.342;2024-03-02T02:45:06;2.80;99.90
2851;DHT22;1433;49.976;8.342;2024-03-02T02:47:32;2.70;99.90
2851;DHT22;1433;49.976;8.342;2024-03-02T02:50:02;2.70;99.90
2851;DHT22;1433;49.976;8.342;2024-03-02T02:52:35;2.70;99.90
2851;DHT22;1433;49.976;8.342;2024-03-02T02:55:05;2.50;99.90
2851;DHT22;1433;49.976;8.342;2024-03-02T02:57:33;2.60;99.90
2851;DHT22;1433;49.976;8.342;2024-03-02T03:00:11;2.60;99.90
2851;DHT22;1433;49.976;8.342;2024-03-02T03:02:45;2.60;99.90
2851;DHT22;1433;49.976;8.342;2024-03-02T03:05:13;2.50;99.90
2851;DHT22;1433;49.976;8.342;2024-03-02T03:07:40;2.50;99.90
2851;DHT22;1433;49.976;8.342;2024-03-02T03:10:07;2.50;99.90
2851;DHT22;1433;49.976;8.342;2024-03-02T03:12:34;2.50;99.90
2851;DHT22;1433;49.976;8.342;2024-03-02T03:15:01;2.40;99.90
2851;DHT22;1433;49.976;8.342;2024-03-02T03:17:27;2.50;99.90
2851;DHT22;1433;49.976;8.342;2024-03-02T03:19:53;2.50;99.90
2851;DHT22;1433;49.976;8.342;2024-03-02T03:22:20;2.50;99.90
2851;DHT22;1433;49.976;8.342;2024-03-02T03:24:46;2.50;99.90
2851;DHT22;1433;49.976;8.342;2024-03-02T03:27:12;2.50;99.90
2851;DHT22;1433;49.976;8.342;2024-03-02T03:29:37;2.70;99.90
2851;DHT22;1433;49.976;8.342;2024-03-02T03:32:03;2.50;99.90
2851;DHT22;1433;49.976;8.342;2024-03-02T03:34:33;2.40;99.90
2851;DHT22;1433;49.976;8.342;2024-03-02T03:36:59;2.40;99.90
2851;DHT22;1433;49.976;8.342;2024-03-02T03:39:25;2.30;99.90
2851;DHT22;1433;49.976;8.342;2024-03-02T03:41:51;2.30;99.90
2851;DHT22;1433;49.976;8.342;2024-03-02T03:44:16;2.30;99.90
2851;DHT22;1433;49.976;8.342;2024-03-02T03:46:42;2.40;99.90
2851;DHT22;1433;49.976;8.342;2024-03-02T03:49:08;2.30;99.90
2851;DHT22;1433;49.976;8.342;2024-03-02T03:51:34;2.30;99.90
2851;DHT22;1433;49.976;8.342;2024-03-02T03:54:01;2.20;99.90
2851;DHT22;1433;49.976;8.342;2024-03-02T03:56:27;2.20;99.90
2851;DHT22;1433;49.976;8.342;2024-03-02T03:58:52;2.20;99.90
2851;DHT22;1433;49.976;8.342;2024-03-02T04:01:18;2.20;99.90
2851;DHT22;1433;49.976;8.342;2024-03-02T04:03:45;2.20;99.90
2851;DHT22;1433;49.976;8.342;2024-03-02T04:06:10;2.10;99.90
2851;DHT22;1433;49.976;8.342;2024-03-02T04:08:36;2.10;99.90
2851;DHT22;1433;49.976;8.342;2024-03-02T04:11:02;2.10;99.90
2851;DHT22;1433;49.976;8.342;2024-03-02T04:13:29;2.10;99.90
2851;DHT22;1433;49.976;8.342;2024-03-02T04:15:55;2.20;99.90
2851;DHT22;1433;49.976;8.342;2024-03-02T04:18:21;2.00;99.90
2851;DHT22;1433;49.976;8.342;2024-03-02T04:20:47;1.90;99.90
2851;DHT22;1433;49.976;8.342;2024-03-02T04:23:13;1.90;99.90
2851;DHT22;1433;49.976;8.342;2024-03-02T04:25:39;2.00;99.90
2851;DHT22;1433;49.976;8.342;2024-03-02T04:28:05;2.00;99.90
2851;DHT22;1433;49.976;8.342;2024-03-02T04:30:30;2.00;99.90
2851;DHT22;1433;49.976;8.342;2024-03-02T04:32:56;2.00;99.90
2851;DHT22;1433;49.976;8.342;2024-03-02T04:35:22;2.00;99.90
2851;DHT22;1433;49.976;8.342;2024-03-02T04:37:48;2.00;99.90
2851;DHT22;1433;49.976;8.342;2024-03-02T04:40:14;2.10;99.90
2851;DHT22;1433;49.976;8.342;2024-03-02T04:42:40;2.20;99.90
2851;DHT22;1433;49.976;8.342;2024-03-02T04:45:06;2.20;99.90
2851;DHT22;1433;49.976;8.342;2024-03-02T04:47:32;2.10;99.90
2851;DHT22;1433;49.976;8.342;2024-03-02T04:49:58;2.20;99.90
2851;DHT22;1433;49.976;8.342;2024-03-02T04:52:24;2.10;99.90
2851;DHT22;1433;49.976;8.342;2024-03-02T04:54:50;2.10;99.90
2851;DHT22;1433;49.976;8.342;2024-03-02T04:57:34;2.10;99.90
2851;DHT22;1433;49.976;8.342;2024-03-02T05:00:00;2.10;99.90
2851;DHT22;1433;49.976;8.342;2024-03-02T05:02:25;2.00;99.90
2851;DHT22;1433;49.976;8.342;2024-03-02T05:04:51;1.90;99.90
2851;DHT22;1433;49.976;8.342;2024-03-02T05:07:17;2.10;99.90
2851;DHT22;1433;49.976;8.342;2024-03-02T05:09:43;2.20;99.90
2851;DHT22;1433;49.976;8.342;2024-03-02T05:12:10;2.40;99.90
2851;DHT22;1433;49.976;8.342;2024-03-02T05:14:54;2.30;99.90
2851;DHT22;1433;49.976;8.342;2024-03-02T05:17:21;2.30;99.90
2851;DHT22;1433;49.976;8.342;2024-03-02T05:19:47;2.50;99.90
2851;DHT22;1433;49.976;8.342;2024-03-02T05:22:13;2.50;99.90
2851;DHT22;1433;49.976;8.342;2024-03-02T05:24:39;2.50;99.90
2851;DHT22;1433;49.976;8.342;2024-03-02T05:27:05;2.50;99.90
2851;DHT22;1433;49.976;8.342;2024-03-02T05:29:31;2.50;99.90
2851;DHT22;1433;49.976;8.342;2024-03-02T05:31:57;2.60;99.90
2851;DHT22;1433;49.976;8.342;2024-03-02T05:34:23;2.70;99.90
2851;DHT22;1433;49.976;8.342;2024-03-02T05:36:49;2.90;99.90
2851;DHT22;1433;49.976;8.342;2024-03-02T05:39:15;3.10;99.90
2851;DHT22;1433;49.976;8.342;2024-03-02T05:41:41;3.10;99.90
2851;DHT22;1433;49.976;8.342;2024-03-02T05:44:07;3.20;99.90
2851;DHT22;1433;49.976;8.342;2024-03-02T05:46:33;3.20;99.90
2851;DHT22;1433;49.976;8.342;2024-03-02T05:48:59;3.30;99.90
2851;DHT22;1433;49.976;8.342;2024-03-02T05:51:26;3.30;99.90
2851;DHT22;1433;49.976;8.342;2024-03-02T05:53:52;3.40;99.90
2851;DHT22;1433;49.976;8.342;2024-03-02T05:56:18;3.50;99.90
2851;DHT22;1433;49.976;8.342;2024-03-02T05:58:44;3.50;99.90
2851;DHT22;1433;49.976;8.342;2024-03-02T06:01:28;3.50;99.90
2851;DHT22;1433;49.976;8.342;2024-03-02T06:03:57;3.70;99.90
2851;DHT22;1433;49.976;8.342;2024-03-02T06:06:24;3.60;99.90
2851;DHT22;1433;49.976;8.342;2024-03-02T06:08:51;3.60;99.90
2851;DHT22;1433;49.976;8.342;2024-03-02T06:11:18;3.70;99.90
2851;DHT22;1433;49.976;8.342;2024-03-02T06:13:45;3.90;99.90
2851;DHT22;1433;49.976;8.342;2024-03-02T06:16:11;3.80;99.90
2851;DHT22;1433;49.976;8.342;2024-03-02T06:18:37;3.80;99.90
2851;DHT22;1433;49.976;8.342;2024-03-02T06:21:03;4.00;99.90
2851;DHT22;1433;49.976;8.342;2024-03-02T06:23:29;3.90;99.90
2851;DHT22;1433;49.976;8.342;2024-03-02T06:25:55;4.10;99.90
2851;DHT22;1433;49.976;8.342;2024-03-02T06:28:21;4.10;99.90
2851;DHT22;1433;49.976;8.342;2024-03-02T06:30:47;4.10;99.90
2851;DHT22;1433;49.976;8.342;2024-03-02T06:33:13;4.20;99.90
2851;DHT22;1433;49.976;8.342;2024-03-02T06:35:38;4.20;99.90
2851;DHT22;1433;49.976;8.342;2024-03-02T06:38:04;4.10;99.90
2851;DHT22;1433;49.976;8.342;2024-03-02T06:40:30;4.10;99.90
2851;DHT22;1433;49.976;8.342;2024-03-02T06:42:56;4.00;99.90
2851;DHT22;1433;49.976;8.342;2024-03-02T06:45:22;3.90;99.90
2851;DHT22;1433;49.976;8.342;2024-03-02T06:47:48;3.90;99.90
2851;DHT22;1433;49.976;8.342;2024-03-02T06:50:14;3.90;99.90
2851;DHT22;1433;49.976;8.342;2024-03-02T06:52:40;3.80;99.90
2851;DHT22;1433;49.976;8.342;2024-03-02T06:55:06;3.80;99.90
2851;DHT22;1433;49.976;8.342;2024-03-02T06:57:32;3.90;99.90
2851;DHT22;1433;49.976;8.342;2024-03-02T06:59:58;4.00;99.90
2851;DHT22;1433;49.976;8.342;2024-03-02T07:02:24;4.10;99.90
2851;DHT22;1433;49.976;8.342;2024-03-02T07:04:54;4.20;99.90
2851;DHT22;1433;49.976;8.342;2024-03-02T07:07:19;4.30;99.90
2851;DHT22;1433;49.976;8.342;2024-03-02T07:09:46;4.50;99.90
2851;DHT22;1433;49.976;8.342;2024-03-02T07:12:13;4.60;99.90
2851;DHT22;1433;49.976;8.342;2024-03-02T07:14:39;4.70;99.90
2851;DHT22;1433;49.976;8.342;2024-03-02T07:17:49;4.80;99.90
2851;DHT22;1433;49.976;8.342;2024-03-02T07:20:15;5.00;99.90
2851;DHT22;1433;49.976;8.342;2024-03-02T07:22:40;5.10;99.90
2851;DHT22;1433;49.976;8.342;2024-03-02T07:25:06;5.30;99.90
2851;DHT22;1433;49.976;8.342;2024-03-02T07:27:33;5.50;99.90
2851;DHT22;1433;49.976;8.342;2024-03-02T07:30:02;5.70;99.90
2851;DHT22;1433;49.976;8.342;2024-03-02T07:32:29;5.90;99.90
2851;DHT22;1433;49.976;8.342;2024-03-02T07:34:54;6.00;99.90
2851;DHT22;1433;49.976;8.342;2024-03-02T07:37:22;6.20;99.90
2851;DHT22;1433;49.976;8.342;2024-03-02T07:39:48;6.40;99.90
2851;DHT22;1433;49.976;8.342;2024-03-02T07:42:14;6.60;99.90
2851;DHT22;1433;49.976;8.342;2024-03-02T07:44:41;6.70;99.90
2851;DHT22;1433;49.976;8.342;2024-03-02T07:47:06;6.70;99.90
2851;DHT22;1433;49.976;8.342;2024-03-02T07:49:32;6.70;99.90
2851;DHT22;1433;49.976;8.342;2024-03-02T07:51:58;6.80;99.90
2851;DHT22;1433;49.976;8.342;2024-03-02T07:54:24;6.90;99.90
2851;DHT22;1433;49.976;8.342;2024-03-02T07:56:50;7.00;99.90
2851;DHT22;1433;49.976;8.342;2024-03-02T07:59:16;7.00;99.90
2851;DHT22;1433;49.976;8.342;2024-03-02T08:01:42;7.10;99.90
2851;DHT22;1433;49.976;8.342;2024-03-02T08:04:08;7.20;99.90
2851;DHT22;1433;49.976;8.342;2024-03-02T08:06:34;7.40;99.90
2851;DHT22;1433;49.976;8.342;2024-03-02T08:09:01;7.60;99.90
2851;DHT22;1433;49.976;8.342;2024-03-02T08:11:27;7.60;99.90
2851;DHT22;1433;49.976;8.342;2024-03-02T08:13:53;7.70;99.90
2851;DHT22;1433;49.976;8.342;2024-03-02T08:16:22;7.90;99.90
2851;DHT22;1433;49.976;8.342;2024-03-02T08:18:49;7.90;99.90
2851;DHT22;1433;49.976;8.342;2024-03-02T08:21:15;8.00;99.90
2851;DHT22;1433;49.976;8.342;2024-03-02T08:23:42;8.20;99.90
2851;DHT22;1433;49.976;8.342;2024-03-02T08:26:11;8.20;99.90
2851;DHT22;1433;49.976;8.342;2024-03-02T08:28:37;8.20;56.70
2851;DHT22;1433;49.976;8.342;2024-03-02T08:31:06;8.30;81.20
2851;DHT22;1433;49.976;8.342;2024-03-02T08:33:33;8.40;99.90
2851;DHT22;1433;49.976;8.342;2024-03-02T08:35:59;8.50;99.90
2851;DHT22;1433;49.976;8.342;2024-03-02T08:38:25;8.50;93.60
2851;DHT22;1433;49.976;8.342;2024-03-02T08:40:51;8.40;1.00
2851;DHT22;1433;49.976;8.342;2024-03-02T08:43:17;8.50;66.20
2851;DHT22;1433;49.976;8.342;2024-03-02T08:45:43;8.60;99.90
2851;DHT22;1433;49.976;8.342;2024-03-02T08:48:10;8.80;26.00
2851;DHT22;1433;49.976;8.342;2024-03-02T08:50:36;8.90;1.00
2851;DHT22;1433;49.976;8.342;2024-03-02T08:53:03;9.00;1.00
2851;DHT22;1433;49.976;8.342;2024-03-02T08:55:30;9.10;1.00
2851;DHT22;1433;49.976;8.342;2024-03-02T08:57:56;9.20;1.00
2851;DHT22;1433;49.976;8.342;2024-03-02T09:00:22;9.20;99.90
2851;DHT22;1433;49.976;8.342;2024-03-02T09:02:48;9.30;1.00
2851;DHT22;1433;49.976;8.342;2024-03-02T09:05:14;9.40;1.00
2851;DHT22;1433;49.976;8.342;2024-03-02T09:07:40;9.30;99.90
2851;DHT22;1433;49.976;8.342;2024-03-02T09:10:07;9.40;99.90
2851;DHT22;1433;49.976;8.342;2024-03-02T09:12:34;9.50;99.90
2851;DHT22;1433;49.976;8.342;2024-03-02T09:15:01;9.50;1.00
2851;DHT22;1433;49.976;8.342;2024-03-02T09:17:28;9.40;1.00
2851;DHT22;1433;49.976;8.342;2024-03-02T09:19:54;9.70;99.90
2851;DHT22;1433;49.976;8.342;2024-03-02T09:22:20;9.80;99.90
2851;DHT22;1433;49.976;8.342;2024-03-02T09:24:47;9.90;99.90
2851;DHT22;1433;49.976;8.342;2024-03-02T09:27:13;10.10;1.00
2851;DHT22;1433;49.976;8.342;2024-03-02T09:29:39;10.10;99.90
2851;DHT22;1433;49.976;8.342;2024-03-02T09:32:11;10.20;1.00
2851;DHT22;1433;49.976;8.342;2024-03-02T09:34:38;10.40;1.00
2851;DHT22;1433;49.976;8.342;2024-03-02T09:37:04;10.70;99.90
2851;DHT22;1433;49.976;8.342;2024-03-02T09:39:30;10.70;1.00
2851;DHT22;1433;49.976;8.342;2024-03-02T09:41:57;10.90;99.90
2851;DHT22;1433;49.976;8.342;2024-03-02T09:44:25;11.10;1.00
2851;DHT22;1433;49.976;8.342;2024-03-02T09:46:52;11.10;1.00
2851;DHT22;1433;49.976;8.342;2024-03-02T09:49:18;11.10;1.00
2851;DHT22;1433;49.976;8.342;2024-03-02T09:51:48;11.30;1.00
2851;DHT22;1433;49.976;8.342;2024-03-02T09:54:16;11.40;99.90
2851;DHT22;1433;49.976;8.342;2024-03-02T09:56:42;11.20;1.00
2851;DHT22;1433;49.976;8.342;2024-03-02T09:59:09;11.30;1.00
2851;DHT22;1433;49.976;8.342;2024-03-02T10:01:35;11.40;1.00
2851;DHT22;1433;49.976;8.342;2024-03-02T10:04:01;11.50;1.00
2851;DHT22;1433;49.976;8.342;2024-03-02T10:06:30;11.60;17.50
2851;DHT22;1433;49.976;8.342;2024-03-02T10:08:56;11.80;1.00
2851;DHT22;1433;49.976;8.342;2024-03-02T10:11:32;11.70;1.00
2851;DHT22;1433;49.976;8.342;2024-03-02T10:14:09;11.80;1.00
2851;DHT22;1433;49.976;8.342;2024-03-02T10:16:36;12.00;1.00
2851;DHT22;1433;49.976;8.342;2024-03-02T10:19:23;12.10;1.00
2851;DHT22;1433;49.976;8.342;2024-03-02T10:21:54;12.10;99.90
2851;DHT22;1433;49.976;8.342;2024-03-02T10:24:23;12.10;99.90
2851;DHT22;1433;49.976;8.342;2024-03-02T10:26:49;12.30;99.90
2851;DHT22;1433;49.976;8.342;2024-03-02T10:29:15;12.60;1.00
2851;DHT22;1433;49.976;8.342;2024-03-02T10:31:46;12.80;99.90
2851;DHT22;1433;49.976;8.342;2024-03-02T10:34:12;13.00;99.90
2851;DHT22;1433;49.976;8.342;2024-03-02T10:36:43;13.10;99.90
2851;DHT22;1433;49.976;8.342;2024-03-02T10:39:09;13.30;99.90
2851;DHT22;1433;49.976;8.342;2024-03-02T10:41:37;13.20;99.90
2851;DHT22;1433;49.976;8.342;2024-03-02T10:44:05;13.10;99.90
2851;DHT22;1433;49.976;8.342;2024-03-02T10:46:33;13.40;99.90
2851;DHT22;1433;49.976;8.342;2024-03-02T10:49:03;13.60;99.90
2851;DHT22;1433;49.976;8.342;2024-03-02T10:51:31;13.70;99.90
2851;DHT22;1433;49.976;8.342;2024-03-02T10:53:59;13.70;99.90
2851;DHT22;1433;49.976;8.342;2024-03-02T10:56:42;13.60;99.90
2851;DHT22;1433;49.976;8.342;2024-03-02T10:59:32;13.70;99.90
2851;DHT22;1433;49.976;8.342;2024-03-02T11:02:01;13.80;99.90
2851;DHT22;1433;49.976;8.342;2024-03-02T11:04:30;14.10;99.90
2851;DHT22;1433;49.976;8.342;2024-03-02T11:07:08;14.30;99.90
2851;DHT22;1433;49.976;8.342;2024-03-02T11:09:44;14.20;99.90
2851;DHT22;1433;49.976;8.342;2024-03-02T11:12:36;14.30;99.90
2851;DHT22;1433;49.976;8.342;2024-03-02T11:15:17;14.30;99.90
2851;DHT22;1433;49.976;8.342;2024-03-02T11:17:47;14.50;99.90
2851;DHT22;1433;49.976;8.342;2024-03-02T11:20:14;14.50;99.90
2851;DHT22;1433;49.976;8.342;2024-03-02T11:22:40;14.10;96.70
2851;DHT22;1433;49.976;8.342;2024-03-02T11:25:26;14.10;99.90
2851;DHT22;1433;49.976;8.342;2024-03-02T11:33:00;14.60;99.90
2851;DHT22;1433;49.976;8.342;2024-03-02T11:35:31;14.50;99.90
2851;DHT22;1433;49.976;8.342;2024-03-02T11:37:57;14.70;99.90
2851;DHT22;1433;49.976;8.342;2024-03-02T11:40:30;14.80;99.90
2851;DHT22;1433;49.976;8.342;2024-03-02T11:43:00;14.80;99.90
2851;DHT22;1433;49.976;8.342;2024-03-02T11:45:26;14.80;99.90
2851;DHT22;1433;49.976;8.342;2024-03-02T11:47:57;15.10;99.90
2851;DHT22;1433;49.976;8.342;2024-03-02T11:53:06;15.40;99.90
2851;DHT22;1433;49.976;8.342;2024-03-02T11:55:38;15.80;99.90
2851;DHT22;1433;49.976;8.342;2024-03-02T11:58:15;15.70;99.90
2851;DHT22;1433;49.976;8.342;2024-03-02T12:00:54;15.90;99.90
2851;DHT22;1433;49.976;8.342;2024-03-02T12:03:23;16.10;99.90
2851;DHT22;1433;49.976;8.342;2024-03-02T12:05:52;16.50;99.90
2851;DHT22;1433;49.976;8.342;2024-03-02T12:08:19;16.50;99.90
2851;DHT22;1433;49.976;8.342;2024-03-02T12:11:01;16.20;92.90
2851;DHT22;1433;49.976;8.342;2024-03-02T12:13:27;16.60;99.90
2851;DHT22;1433;49.976;8.342;2024-03-02T12:15:54;17.40;99.90
2851;DHT22;1433;49.976;8.342;2024-03-02T12:18:21;18.10;99.90
2851;DHT22;1433;49.976;8.342;2024-03-02T12:20:49;18.70;99.90
2851;DHT22;1433;49.976;8.342;2024-03-02T12:23:18;19.60;99.90
2851;DHT22;1433;49.976;8.342;2024-03-02T12:25:45;20.20;99.90
2851;DHT22;1433;49.976;8.342;2024-03-02T12:28:11;20.80;99.90
2851;DHT22;1433;49.976;8.342;2024-03-02T12:30:38;21.30;99.90
2851;DHT22;1433;49.976;8.342;2024-03-02T12:33:04;21.20;99.90
2851;DHT22;1433;49.976;8.342;2024-03-02T12:35:30;21.60;99.90
2851;DHT22;1433;49.976;8.342;2024-03-02T12:37:57;21.90;99.90
2851;DHT22;1433;49.976;8.342;2024-03-02T12:40:24;22.10;99.90
2851;DHT22;1433;49.976;8.342;2024-03-02T12:42:50;22.00;99.90
2851;DHT22;1433;49.976;8.342;2024-03-02T12:45:16;22.10;99.90
2851;DHT22;1433;49.976;8.342;2024-03-02T12:47:49;22.60;99.90
2851;DHT22;1433;49.976;8.342;2024-03-02T12:50:16;22.60;99.90
2851;DHT22;1433;49.976;8.342;2024-03-02T12:52:43;22.00;99.90
2851;DHT22;1433;49.976;8.342;2024-03-02T12:55:09;21.60;99.90
2851;DHT22;1433;49.976;8.342;2024-03-02T12:57:35;21.10;99.90
2851;DHT22;1433;49.976;8.342;2024-03-02T13:00:06;20.80;99.90
2851;DHT22;1433;49.976;8.342;2024-03-02T13:02:41;20.20;99.90
2851;DHT22;1433;49.976;8.342;2024-03-02T13:05:08;19.90;99.90
2851;DHT22;1433;49.976;8.342;2024-03-02T13:07:40;20.00;99.90
2851;DHT22;1433;49.976;8.342;2024-03-02T13:10:07;20.00;99.90
2851;DHT22;1433;49.976;8.342;2024-03-02T13:12:35;19.90;99.90
2851;DHT22;1433;49.976;8.342;2024-03-02T13:15:02;19.70;99.90
2851;DHT22;1433;49.976;8.342;2024-03-02T13:17:29;19.60;99.90
2851;DHT22;1433;49.976;8.342;2024-03-02T13:19:56;19.60;99.90
2851;DHT22;1433;49.976;8.342;2024-03-02T13:22:24;19.20;99.90
2851;DHT22;1433;49.976;8.342;2024-03-02T13:24:51;19.00;62.00
2851;DHT22;1433;49.976;8.342;2024-03-02T13:27:20;18.80;90.90
2851;DHT22;1433;49.976;8.342;2024-03-02T13:29:49;19.10;99.90
2851;DHT22;1433;49.976;8.342;2024-03-02T13:32:16;19.60;99.90
2851;DHT22;1433;49.976;8.342;2024-03-02T13:34:42;19.90;99.90
2851;DHT22;1433;49.976;8.342;2024-03-02T13:37:08;20.20;99.90
2851;DHT22;1433;49.976;8.342;2024-03-02T13:39:35;20.70;99.90
2851;DHT22;1433;49.976;8.342;2024-03-02T13:42:10;20.60;99.90
2851;DHT22;1433;49.976;8.342;2024-03-02T13:44:39;20.60;99.90
2851;DHT22;1433;49.976;8.342;2024-03-02T13:47:05;21.20;99.90
2851;DHT22;1433;49.976;8.342;2024-03-02T13:49:31;21.90;99.90
2851;DHT22;1433;49.976;8.342;2024-03-02T13:52:05;22.40;99.90
2851;DHT22;1433;49.976;8.342;2024-03-02T13:54:46;22.90;99.90
2851;DHT22;1433;49.976;8.342;2024-03-02T13:57:13;23.20;99.90
2851;DHT22;1433;49.976;8.342;2024-03-02T13:59:41;23.10;99.90
2851;DHT22;1433;49.976;8.342;2024-03-02T14:02:08;23.10;99.90
2851;DHT22;1433;49.976;8.342;2024-03-02T14:04:34;23.00;99.90
2851;DHT22;1433;49.976;8.342;2024-03-02T14:07:01;22.70;99.90
2851;DHT22;1433;49.976;8.342;2024-03-02T14:09:28;22.60;99.90
2851;DHT22;1433;49.976;8.342;2024-03-02T14:11:54;22.80;99.90
2851;DHT22;1433;49.976;8.342;2024-03-02T14:14:21;22.40;99.90
2851;DHT22;1433;49.976;8.342;2024-03-02T14:16:47;22.00;99.90
2851;DHT22;1433;49.976;8.342;2024-03-02T14:19:13;22.00;99.90
2851;DHT22;1433;49.976;8.342;2024-03-02T14:21:39;22.20;99.90
2851;DHT22;1433;49.976;8.342;2024-03-02T14:24:05;22.20;99.90
2851;DHT22;1433;49.976;8.342;2024-03-02T14:26:35;22.20;99.90
2851;DHT22;1433;49.976;8.342;2024-03-02T14:29:03;21.80;99.90
2851;DHT22;1433;49.976;8.342;2024-03-02T14:31:29;21.80;99.90
2851;DHT22;1433;49.976;8.342;2024-03-02T14:33:56;21.80;99.90
2851;DHT22;1433;49.976;8.342;2024-03-02T14:36:22;21.70;99.90
2851;DHT22;1433;49.976;8.342;2024-03-02T14:38:49;21.60;99.90
2851;DHT22;1433;49.976;8.342;2024-03-02T14:41:15;21.50;99.90
2851;DHT22;1433;49.976;8.342;2024-03-02T14:43:41;21.30;99.90
2851;DHT22;1433;49.976;8.342;2024-03-02T14:46:07;21.40;99.90
2851;DHT22;1433;49.976;8.342;2024-03-02T14:48:36;21.20;99.90
2851;DHT22;1433;49.976;8.342;2024-03-02T14:51:04;21.30;99.90
2851;DHT22;1433;49.976;8.342;2024-03-02T14:53:30;21.50;99.90
2851;DHT22;1433;49.976;8.342;2024-03-02T14:55:56;21.40;99.90
2851;DHT22;1433;49.976;8.342;2024-03-02T14:58:22;21.10;99.90
2851;DHT22;1433;49.976;8.342;2024-03-02T15:00:47;20.70;99.90
2851;DHT22;1433;49.976;8.342;2024-03-02T15:03:13;20.20;99.90
2851;DHT22;1433;49.976;8.342;2024-03-02T15:05:39;19.80;99.90
2851;DHT22;1433;49.976;8.342;2024-03-02T15:08:06;19.60;99.90
2851;DHT22;1433;49.976;8.342;2024-03-02T15:10:32;19.40;29.90
2851;DHT22;1433;49.976;8.342;2024-03-02T15:12:58;19.00;16.40
2851;DHT22;1433;49.976;8.342;2024-03-02T15:15:24;18.90;12.70
2851;DHT22;1433;49.976;8.342;2024-03-02T15:17:50;18.70;1.00
2851;DHT22;1433;49.976;8.342;2024-03-02T15:20:18;18.70;1.00
2851;DHT22;1433;49.976;8.342;2024-03-02T15:22:47;18.60;1.00
2851;DHT22;1433;49.976;8.342;2024-03-02T15:25:13;18.40;1.00
2851;DHT22;1433;49.976;8.342;2024-03-02T15:27:41;18.30;1.00
2851;DHT22;1433;49.976;8.342;2024-03-02T15:30:08;18.10;1.00
2851;DHT22;1433;49.976;8.342;2024-03-02T15:32:34;17.90;1.00
2851;DHT22;1433;49.976;8.342;2024-03-02T15:35:02;17.80;1.00
2851;DHT22;1433;49.976;8.342;2024-03-02T15:37:29;17.80;1.00
2851;DHT22;1433;49.976;8.342;2024-03-02T15:39:54;17.40;1.00
2851;DHT22;1433;49.976;8.342;2024-03-02T15:42:20;17.40;1.00
2851;DHT22;1433;49.976;8.342;2024-03-02T15:44:49;17.10;1.00
2851;DHT22;1433;49.976;8.342;2024-03-02T15:47:15;16.90;1.00
2851;DHT22;1433;49.976;8.342;2024-03-02T15:49:41;16.70;1.00
2851;DHT22;1433;49.976;8.342;2024-03-02T15:52:06;16.70;1.00
2851;DHT22;1433;49.976;8.342;2024-03-02T15:54:32;16.40;1.00
2851;DHT22;1433;49.976;8.342;2024-03-02T15:56:59;16.10;1.00
2851;DHT22;1433;49.976;8.342;2024-03-02T15:59:24;16.10;1.00
2851;DHT22;1433;49.976;8.342;2024-03-02T16:01:50;15.70;1.00
2851;DHT22;1433;49.976;8.342;2024-03-02T16:04:16;15.60;1.00
2851;DHT22;1433;49.976;8.342;2024-03-02T16:06:42;15.20;1.00
2851;DHT22;1433;49.976;8.342;2024-03-02T16:09:08;15.00;1.00
2851;DHT22;1433;49.976;8.342;2024-03-02T16:11:36;14.80;1.00
2851;DHT22;1433;49.976;8.342;2024-03-02T16:14:02;14.60;1.00
2851;DHT22;1433;49.976;8.342;2024-03-02T16:16:28;14.60;1.00
2851;DHT22;1433;49.976;8.342;2024-03-02T16:18:54;14.40;1.00
2851;DHT22;1433;49.976;8.342;2024-03-02T16:21:20;14.30;1.00
2851;DHT22;1433;49.976;8.342;2024-03-02T16:23:50;14.20;1.00
2851;DHT22;1433;49.976;8.342;2024-03-02T16:26:16;14.30;1.00